Time;durP1;ratioP1;P1;durP2;ratioP2;P2;SDS_P1;SDS_P2;PMS_P1;PMS_P2;Temp;Humidity;BMP_temperature;BMP_pressure;BME280_temperature;BME280_humidity;BME280_pressure;Samples;Min_cycle;Max_cycle;Signal;HPM_P1;HPM_P2
2022/10/28 00:01:19;;;;;;;5.87;3.00;;;14.90;76.90;15.10;97335.00;;;;5010114;28;20314;-84
2022/10/28 00:03:49;;;;;;;4.77;3.03;;;14.90;76.90;15.10;97341.00;;;;5010591;28;20240;-85
2022/10/28 00:06:19;;;;;;;3.93;3.47;;;14.90;77.00;15.10;97347.00;;;;5012242;28;20277;-85
2022/10/28 00:08:47;;;;;;;3.23;2.93;;;14.90;77.00;15.00;97353.00;;;;5015315;28;20198;-85
2022/10/28 00:11:18;;;;;;;3.07;2.80;;;14.80;76.90;15.00;97349.00;;;;5015297;28;20304;-85
2022/10/28 00:13:48;;;;;;;4.53;3.20;;;14.90;77.00;15.00;97351.00;;;;5013648;28;20293;-85
2022/10/28 00:16:19;;;;;;;3.03;2.80;;;14.80;76.90;14.90;97346.00;;;;5010782;28;20201;-85
2022/10/28 00:18:47;;;;;;;3.57;3.07;;;14.80;76.90;14.90;97346.00;;;;5014433;28;20221;-85
2022/10/28 00:21:18;;;;;;;5.70;2.80;;;14.80;76.90;14.90;97353.00;;;;5014827;28;20222;-85
2022/10/28 00:23:45;;;;;;;5.37;3.10;;;14.80;76.80;14.90;97345.00;;;;5009762;28;22038;-85
2022/10/28 00:26:15;;;;;;;4.10;2.90;;;14.80;76.80;14.90;97345.00;;;;5010017;28;20204;-86
2022/10/28 00:28:47;;;;;;;2.70;2.50;;;14.70;76.90;14.80;97338.00;;;;5015119;28;20198;-86
2022/10/28 00:31:19;;;;;;;3.20;2.90;;;14.70;76.90;14.80;97352.00;;;;5015013;28;20226;-86
2022/10/28 00:33:47;;;;;;;3.20;2.90;;;14.70;76.90;14.80;97349.00;;;;5013543;28;22082;-85
2022/10/28 00:36:17;;;;;;;3.07;2.87;;;14.70;76.80;14.80;97349.00;;;;5013951;28;20591;-86
2022/10/28 00:38:48;;;;;;;3.60;2.40;;;14.70;76.80;14.80;97346.00;;;;5014085;28;20686;-86
2022/10/28 00:41:21;;;;;;;3.83;2.93;;;14.60;76.90;14.70;97352.00;;;;5014623;28;20300;-86
2022/10/28 00:43:52;;;;;;;2.87;2.67;;;14.60;76.90;14.70;97347.00;;;;5014333;28;20224;-85
2022/10/28 00:46:28;;;;;;;2.87;2.40;;;14.60;76.80;14.70;97353.00;;;;5015472;28;20285;-86
2022/10/28 00:49:01;;;;;;;2.97;2.67;;;14.60;77.00;14.70;97344.00;;;;5014173;28;20277;-86
2022/10/28 00:51:31;;;;;;;3.07;2.77;;;14.50;77.60;14.70;97348.00;;;;5011340;28;20565;-86
2022/10/28 00:53:58;;;;;;;3.27;2.97;;;14.50;76.90;14.70;97337.00;;;;5010135;28;20245;-86
2022/10/28 00:56:32;;;;;;;3.90;3.10;;;14.50;77.00;14.60;97340.00;;;;5011454;28;20198;-86
2022/10/28 00:59:06;;;;;;;3.53;3.00;;;14.50;77.00;14.60;97340.00;;;;5014110;28;20198;-86
2022/10/28 01:01:33;;;;;;;2.90;2.60;;;14.50;77.00;14.60;97340.00;;;;5014038;28;20698;-86
2022/10/28 01:04:01;;;;;;;2.90;2.57;;;14.50;77.00;14.60;97339.00;;;;5013735;28;20304;-86
2022/10/28 01:06:29;;;;;;;3.17;2.87;;;14.50;77.00;14.60;97332.00;;;;5013027;28;20325;-86
2022/10/28 01:08:56;;;;;;;3.53;2.77;;;14.50;76.90;14.60;97340.00;;;;5013808;28;20202;-86
2022/10/28 01:11:53;;;;;;;2.80;2.60;;;14.40;76.90;14.50;97340.00;;;;5012310;28;20648;-86
2022/10/28 01:14:49;;;;;;;4.43;2.90;;;14.40;77.00;14.50;97340.00;;;;5011103;28;20277;-86
2022/10/28 01:17:37;;;;;;;3.67;2.87;;;14.40;77.00;14.50;97335.00;;;;5010384;28;20289;-85
2022/10/28 01:20:38;;;;;;;3.93;3.17;;;14.40;76.90;14.50;97336.00;;;;5014086;28;20297;-86
2022/10/28 01:23:16;;;;;;;2.70;2.50;;;14.40;76.90;14.50;97324.00;;;;5011420;28;20225;-86
2022/10/28 01:26:37;;;;;;;3.90;3.50;;;14.30;76.80;14.40;97340.00;;;;5014019;28;20659;-86
2022/10/28 01:29:48;;;;;;;3.10;2.80;;;14.40;77.00;14.40;97330.00;;;;5009683;28;20210;-86
2022/10/28 01:32:29;;;;;;;3.43;2.83;;;14.30;76.80;14.40;97334.00;;;;5005764;28;20653;-86
2022/10/28 01:35:12;;;;;;;3.63;2.67;;;14.30;76.80;14.40;97326.00;;;;5008353;28;20208;-86
2022/10/28 01:37:53;;;;;;;4.23;3.10;;;14.30;76.80;14.30;97330.00;;;;5015997;28;20620;-85
2022/10/28 01:40:30;;;;;;;3.80;2.77;;;14.30;76.70;14.30;97328.00;;;;5009554;28;20202;-86
2022/10/28 01:43:11;;;;;;;5.10;2.90;;;14.30;76.70;14.30;97326.00;;;;5003937;28;20626;-86
2022/10/28 01:45:49;;;;;;;2.57;2.33;;;14.20;76.80;14.30;97322.00;;;;4996203;28;20652;-86
2022/10/28 01:48:26;;;;;;;4.03;3.63;;;14.20;77.60;14.30;97327.00;;;;5012665;28;20200;-86
2022/10/28 01:51:02;;;;;;;3.33;3.13;;;14.20;76.90;14.30;97332.00;;;;5013317;28;20221;-85
2022/10/28 01:53:37;;;;;;;4.37;3.23;;;14.20;77.00;14.20;97331.00;;;;5008145;28;20212;-85
2022/10/28 01:56:14;;;;;;;4.23;3.40;;;14.10;76.90;14.20;97325.00;;;;5011142;28;20280;-86
2022/10/28 01:58:43;;;;;;;3.60;3.23;;;14.10;77.00;14.20;97322.00;;;;5014172;28;20190;-86
2022/10/28 02:01:11;;;;;;;3.47;3.07;;;14.10;77.00;14.20;97330.00;;;;5013354;28;20225;-86
2022/10/28 02:03:40;;;;;;;4.00;3.57;;;14.00;76.80;14.20;97321.00;;;;5011638;28;20225;-85
2022/10/28 02:06:17;;;;;;;3.40;3.10;;;14.10;77.00;14.20;97328.00;;;;5012771;28;20213;-86
2022/10/28 02:09:06;;;;;;;3.73;3.37;;;14.10;77.10;14.20;97317.00;;;;5008101;28;20278;-86
2022/10/28 02:12:03;;;;;;;3.40;2.90;;;14.10;77.10;14.20;97317.00;;;;5012366;28;20228;-85
2022/10/28 02:14:56;;;;;;;4.20;2.93;;;14.10;77.10;14.20;97322.00;;;;5012474;28;20189;-86
2022/10/28 02:17:36;;;;;;;7.07;3.20;;;14.10;77.00;14.10;97324.00;;;;5013098;28;20197;-86
2022/10/28 02:20:18;;;;;;;5.80;3.10;;;14.00;77.00;14.10;97323.00;;;;4998741;28;20198;-86
2022/10/28 02:22:51;;;;;;;3.17;2.57;;;14.00;77.00;14.10;97320.00;;;;5012305;28;20234;-85
2022/10/28 02:25:23;;;;;;;3.07;2.77;;;14.00;77.00;14.10;97321.00;;;;5012421;28;20282;-86
2022/10/28 02:27:58;;;;;;;3.00;2.57;;;14.00;77.00;14.10;97316.00;;;;5012237;28;20278;-86
2022/10/28 02:30:34;;;;;;;3.83;3.10;;;14.00;77.00;14.10;97318.00;;;;5011052;28;20193;-86
2022/10/28 02:33:06;;;;;;;3.73;2.80;;;14.00;77.20;14.10;97316.00;;;;5008456;28;20261;-86
2022/10/28 02:35:43;;;;;;;4.20;2.93;;;14.00;77.40;14.10;97316.00;;;;5008461;28;20194;-86
2022/10/28 02:38:17;;;;;;;2.93;2.73;;;14.00;77.30;14.10;97305.00;;;;5011430;28;20197;-86
2022/10/28 02:40:51;;;;;;;3.60;3.20;;;13.90;77.10;14.00;97307.00;;;;5009146;28;20190;-86
2022/10/28 02:43:22;;;;;;;3.60;3.30;;;13.90;77.10;14.00;97304.00;;;;5009531;28;20250;-86
2022/10/28 02:45:55;;;;;;;2.63;2.43;;;13.90;77.10;14.00;97306.00;;;;5011957;28;20233;-86
2022/10/28 02:48:31;;;;;;;2.87;2.63;;;13.90;77.10;14.00;97296.00;;;;5012101;28;20198;-86
2022/10/28 02:51:07;;;;;;;3.70;2.87;;;13.90;77.00;14.00;97301.00;;;;5012349;28;20205;-86
2022/10/28 02:53:50;;;;;;;3.23;2.80;;;13.90;76.90;14.00;97305.00;;;;5010603;28;20349;-86
2022/10/28 02:56:21;;;;;;;2.77;2.43;;;13.90;77.60;13.90;97305.00;;;;5012232;28;20201;-86
2022/10/28 02:58:48;;;;;;;12.00;3.17;;;13.80;76.80;13.90;97298.00;;;;5011581;28;20730;-86
2022/10/28 03:01:15;;;;;;;2.70;2.50;;;13.80;76.80;13.90;97304.00;;;;5012806;28;20248;-85
2022/10/28 03:03:43;;;;;;;3.87;3.13;;;13.80;76.90;13.90;97303.00;;;;5015077;28;20257;-86
2022/10/28 03:06:12;;;;;;;3.60;3.20;;;13.80;77.00;13.90;97303.00;;;;5006772;28;20834;-85
2022/10/28 03:08:39;;;;;;;5.63;3.03;;;13.80;77.00;13.90;97303.00;;;;5011608;28;20208;-86
2022/10/28 03:11:06;;;;;;;3.77;3.40;;;13.80;77.00;13.90;97300.00;;;;5005674;28;20196;-86
2022/10/28 03:13:33;;;;;;;3.20;2.70;;;13.80;77.80;13.90;97301.00;;;;5011185;28;20201;-86
2022/10/28 03:16:00;;;;;;;5.47;2.90;;;13.80;77.10;13.90;97300.00;;;;5011993;28;20230;-86
2022/10/28 03:18:27;;;;;;;3.00;2.80;;;13.70;77.10;13.90;97313.00;;;;5012230;28;20280;-85
2022/10/28 03:20:54;;;;;;;3.27;3.07;;;13.70;77.20;13.90;97310.00;;;;5012059;28;20293;-85
2022/10/28 03:23:23;;;;;;;3.53;2.93;;;13.70;77.30;13.90;97306.00;;;;5012000;28;20226;-86
2022/10/28 03:25:50;;;;;;;3.00;2.67;;;13.70;77.20;13.80;97300.00;;;;5011739;28;20285;-85
2022/10/28 03:28:17;;;;;;;3.13;2.83;;;13.70;77.40;13.90;97302.00;;;;5011228;28;20232;-86
2022/10/28 03:30:44;;;;;;;3.57;2.70;;;13.70;77.60;13.90;97307.00;;;;5012440;28;20286;-86
2022/10/28 03:33:11;;;;;;;3.00;2.70;;;13.70;77.60;13.90;97297.00;;;;5011777;28;20222;-86
2022/10/28 03:35:38;;;;;;;4.00;3.13;;;13.70;77.60;13.90;97303.00;;;;5011343;28;20285;-86
2022/10/28 03:38:05;;;;;;;3.27;2.80;;;13.70;77.50;13.90;97297.00;;;;5011923;28;20205;-86
2022/10/28 03:40:34;;;;;;;3.90;3.00;;;13.70;77.50;13.90;97297.00;;;;5011483;28;20201;-86
2022/10/28 03:43:01;;;;;;;4.03;2.90;;;13.70;77.50;13.90;97298.00;;;;5012893;28;20226;-86
2022/10/28 03:45:28;;;;;;;3.77;2.70;;;13.70;77.50;13.80;97297.00;;;;5015075;28;20284;-86
2022/10/28 03:47:55;;;;;;;3.17;2.70;;;13.70;77.40;13.80;97293.00;;;;5015647;28;20637;-86
2022/10/28 03:50:22;;;;;;;3.03;2.77;;;13.70;77.40;13.80;97288.00;;;;5016004;28;20198;-86
2022/10/28 03:52:49;;;;;;;3.23;2.43;;;13.70;77.40;13.80;97291.00;;;;5016115;28;20218;-85
2022/10/28 03:55:17;;;;;;;3.67;3.13;;;13.70;77.40;13.80;97298.00;;;;5013292;28;20318;-85
2022/10/28 03:57:45;;;;;;;3.83;3.20;;;13.70;77.50;13.80;97293.00;;;;5015908;28;20240;-86
2022/10/28 04:00:15;;;;;;;4.10;3.60;;;13.70;77.70;13.80;97299.00;;;;5015884;28;20650;-86
2022/10/28 04:02:42;;;;;;;3.13;2.83;;;13.70;77.70;13.80;97291.00;;;;5014734;28;20727;-86
2022/10/28 04:05:09;;;;;;;5.47;3.37;;;13.70;77.60;13.80;97305.00;;;;5013872;28;20667;-86
2022/10/28 04:07:36;;;;;;;5.37;3.37;;;13.70;77.60;13.80;97301.00;;;;5011048;28;20225;-86
2022/10/28 04:10:04;;;;;;;3.57;3.27;;;13.70;77.50;13.80;97300.00;;;;5015843;28;20668;-85
2022/10/28 04:12:31;;;;;;;2.93;2.67;;;13.70;77.50;13.80;97301.00;;;;5015639;28;20268;-86
2022/10/28 04:14:59;;;;;;;3.80;2.57;;;13.70;77.50;13.80;97300.00;;;;5013869;28;20212;-86
2022/10/28 04:17:26;;;;;;;3.33;3.03;;;13.70;78.30;13.80;97299.00;;;;5006495;28;20199;-86
2022/10/28 04:19:53;;;;;;;3.77;3.40;;;13.70;77.60;13.80;97304.00;;;;5011990;28;20234;-87
2022/10/28 04:22:21;;;;;;;4.73;2.73;;;13.70;77.70;13.80;97307.00;;;;5014289;28;20249;-86
2022/10/28 04:24:48;;;;;;;3.67;3.17;;;13.70;77.80;13.80;97308.00;;;;5005846;28;20762;-86
2022/10/28 04:27:15;;;;;;;5.43;3.27;;;13.70;77.70;13.80;97312.00;;;;5014913;28;20875;-86
2022/10/28 04:29:42;;;;;;;4.30;2.87;;;13.70;77.70;13.80;97309.00;;;;5014956;28;20894;-87
2022/10/28 04:32:10;;;;;;;3.20;2.97;;;13.70;77.50;13.80;97307.00;;;;5016142;28;20249;-86
2022/10/28 04:34:37;;;;;;;3.43;2.80;;;13.70;77.50;13.80;97307.00;;;;5016975;28;20685;-86
2022/10/28 04:37:05;;;;;;;4.10;2.70;;;13.70;77.40;13.80;97302.00;;;;5015033;28;20203;-86
2022/10/28 04:39:32;;;;;;;3.77;2.80;;;13.70;77.40;13.80;97304.00;;;;5014721;28;20202;-86
2022/10/28 04:41:59;;;;;;;3.30;2.97;;;13.60;77.40;13.70;97293.00;;;;5014945;28;20305;-86
2022/10/28 04:44:26;;;;;;;3.40;2.90;;;13.60;77.50;13.70;97301.00;;;;5014633;28;20905;-86
2022/10/28 04:46:55;;;;;;;3.13;2.90;;;13.60;77.50;13.70;97307.00;;;;5013759;28;20285;-87
2022/10/28 04:49:24;;;;;;;4.50;3.50;;;13.60;77.50;13.70;97306.00;;;;5011695;28;20237;-87
2022/10/28 04:51:51;;;;;;;3.10;2.80;;;13.60;77.40;13.70;97305.00;;;;5006416;28;20315;-86
2022/10/28 04:54:18;;;;;;;3.63;3.20;;;13.60;77.40;13.70;97305.00;;;;5008769;28;20276;-86
2022/10/28 04:56:45;;;;;;;3.40;3.10;;;13.60;78.30;13.70;97304.00;;;;5009084;28;20236;-87
2022/10/28 04:59:12;;;;;;;3.97;3.40;;;13.60;77.70;13.70;97302.00;;;;5013854;28;20284;-86
2022/10/28 05:01:39;;;;;;;3.60;2.97;;;13.60;77.60;13.70;97295.00;;;;5012758;28;20312;-86
2022/10/28 05:04:06;;;;;;;3.30;2.80;;;13.60;77.60;13.70;97301.00;;;;5059321;22;20787;-86
2022/10/28 05:06:35;;;;;;;3.07;2.87;;;13.60;77.60;13.70;97300.00;;;;5064447;28;20268;-87
2022/10/28 05:09:02;;;;;;;4.97;3.40;;;13.60;78.20;13.70;97302.00;;;;5045999;28;20613;-86
2022/10/28 05:11:29;;;;;;;4.07;3.07;;;13.60;77.60;13.70;97299.00;;;;5055305;28;20279;-86
2022/10/28 05:13:56;;;;;;;2.93;2.73;;;13.60;77.60;13.70;97296.00;;;;5055345;28;20307;-86
2022/10/28 05:16:24;;;;;;;6.67;3.40;;;13.60;77.60;13.70;97294.00;;;;5036905;28;20301;-87
2022/10/28 05:18:51;;;;;;;3.43;3.00;;;13.50;77.70;13.70;97291.00;;;;5044591;28;20216;-86
2022/10/28 05:21:18;;;;;;;3.33;2.43;;;13.50;77.70;13.70;97287.00;;;;5055118;28;20614;-86
2022/10/28 05:23:47;;;;;;;4.60;3.10;;;13.50;77.60;13.60;97287.00;;;;5041682;28;20720;-86
2022/10/28 05:26:14;;;;;;;2.93;2.73;;;13.50;77.40;13.60;97284.00;;;;5035015;28;20377;-86
2022/10/28 05:28:42;;;;;;;3.27;2.93;;;13.50;77.30;13.60;97284.00;;;;5034887;28;20209;-86
2022/10/28 05:31:09;;;;;;;3.37;2.77;;;13.50;77.30;13.60;97290.00;;;;5034500;28;20213;-86
2022/10/28 05:33:36;;;;;;;2.97;2.70;;;13.50;77.30;13.60;97290.00;;;;5034418;28;20312;-86
2022/10/28 05:36:04;;;;;;;3.17;2.90;;;13.50;77.20;13.60;97297.00;;;;5034584;28;20197;-86
2022/10/28 05:38:31;;;;;;;3.30;3.00;;;13.50;77.30;13.50;97286.00;;;;5034398;28;20193;-86
2022/10/28 05:41:00;;;;;;;2.70;2.50;;;13.50;77.20;13.50;97295.00;;;;5018391;28;20218;-86
2022/10/28 05:43:27;;;;;;;3.87;2.70;;;13.50;77.20;13.50;97297.00;;;;5015022;28;20289;-86
2022/10/28 05:45:55;;;;;;;3.17;2.70;;;13.40;77.10;13.50;97290.00;;;;5014343;28;20308;-86
2022/10/28 05:48:22;;;;;;;2.57;2.37;;;13.40;77.10;13.50;97298.00;;;;5018183;28;20224;-86
2022/10/28 05:50:49;;;;;;;3.10;2.80;;;13.40;77.00;13.50;97294.00;;;;5014750;28;20289;-85
2022/10/28 05:53:17;;;;;;;2.97;2.67;;;13.40;77.20;13.50;97292.00;;;;5014350;28;20261;-85
2022/10/28 05:55:44;;;;;;;2.57;2.40;;;13.40;77.30;13.50;97293.00;;;;5014197;28;20234;-85
2022/10/28 05:58:12;;;;;;;3.70;3.07;;;13.40;78.20;13.50;97297.00;;;;5014953;28;20204;-87
2022/10/28 06:00:39;;;;;;;4.97;3.03;;;13.40;77.70;13.50;97306.00;;;;5014919;28;20206;-86
2022/10/28 06:03:11;;;;;;;3.00;2.43;;;13.40;78.00;13.60;97306.00;;;;5018260;28;20239;-86
2022/10/28 06:05:40;;;;;;;4.73;2.57;;;13.40;78.30;13.60;97303.00;;;;5026474;28;20309;-86
2022/10/28 06:08:08;;;;;;;2.57;2.13;;;13.40;78.40;13.70;97312.00;;;;5035830;28;20247;-86
2022/10/28 06:10:35;;;;;;;3.33;2.43;;;13.40;78.50;13.70;97303.00;;;;5023529;28;20201;-85
2022/10/28 06:13:02;;;;;;;2.40;2.20;;;13.50;78.50;13.80;97307.00;;;;5039851;28;20240;-86
2022/10/28 06:15:30;;;;;;;2.30;2.10;;;13.50;78.50;13.80;97311.00;;;;5035245;28;20198;-86
2022/10/28 06:17:58;;;;;;;2.60;2.33;;;13.50;78.40;13.90;97320.00;;;;5042514;28;20284;-87
2022/10/28 06:20:26;;;;;;;4.57;2.27;;;13.40;78.30;13.90;97322.00;;;;5032882;28;20237;-87
2022/10/28 06:22:55;;;;;;;2.70;2.47;;;13.60;78.40;13.90;97324.00;;;;5042493;28;20697;-86
2022/10/28 06:25:25;;;;;;;2.50;2.30;;;13.60;78.50;14.00;97320.00;;;;5039365;28;20249;-86
2022/10/28 06:27:55;;;;;;;2.47;2.27;;;13.60;78.70;14.00;97325.00;;;;5043476;28;20229;-86
2022/10/28 06:30:23;;;;;;;2.57;1.90;;;13.70;78.70;14.00;97323.00;;;;5032269;28;20550;-86
2022/10/28 06:32:52;;;;;;;3.03;2.70;;;13.70;78.60;14.00;97323.00;;;;5036957;28;20255;-86
2022/10/28 06:35:19;;;;;;;2.70;2.50;;;13.70;78.60;14.00;97322.00;;;;5038973;28;20279;-87
2022/10/28 06:37:46;;;;;;;2.43;2.13;;;13.70;78.60;14.10;97315.00;;;;5043763;28;20208;-86
2022/10/28 06:40:14;;;;;;;3.83;2.00;;;13.70;78.60;14.10;97311.00;;;;5043270;28;20303;-87
2022/10/28 06:42:41;;;;;;;2.57;2.37;;;13.80;78.70;14.10;97319.00;;;;5042529;28;20235;-86
2022/10/28 06:45:09;;;;;;;2.13;2.03;;;13.80;78.80;14.10;97315.00;;;;5043446;28;20278;-86
2022/10/28 06:47:36;;;;;;;2.53;1.97;;;13.80;78.80;14.10;97320.00;;;;5044074;28;20197;-86
2022/10/28 06:50:05;;;;;;;2.37;2.17;;;13.80;78.80;14.20;97326.00;;;;5042433;28;20662;-87
2022/10/28 06:52:33;;;;;;;4.23;2.23;;;13.80;78.90;14.20;97328.00;;;;5041318;28;20654;-87
2022/10/28 06:55:00;;;;;;;2.57;2.23;;;13.80;79.00;14.20;97336.00;;;;5040266;28;20634;-87
2022/10/28 06:57:27;;;;;;;2.10;1.90;;;13.90;79.20;14.30;97337.00;;;;5048301;28;20207;-86
2022/10/28 06:59:54;;;;;;;3.27;2.37;;;14.00;79.40;14.30;97344.00;;;;5041029;28;20201;-86
2022/10/28 07:02:21;;;;;;;1.90;1.70;;;13.90;79.50;14.40;97346.00;;;;5041957;28;20200;-87
2022/10/28 07:04:48;;;;;;;3.03;2.20;;;14.00;79.80;14.40;97347.00;;;;5041933;28;20209;-87
2022/10/28 07:07:17;;;;;;;2.07;1.77;;;14.00;79.90;14.50;97353.00;;;;5036435;28;20211;-87
2022/10/28 07:09:44;;;;;;;3.80;1.77;;;14.10;80.00;14.50;97355.00;;;;5041368;28;20812;-86
2022/10/28 07:12:11;;;;;;;3.43;1.80;;;14.10;80.00;14.60;97361.00;;;;5043833;28;20284;-87
2022/10/28 07:14:38;;;;;;;5.43;2.00;;;14.20;80.00;14.60;97357.00;;;;5036120;28;20289;-87
2022/10/28 07:17:05;;;;;;;3.17;1.90;;;14.20;80.10;14.70;97363.00;;;;5043452;28;20215;-87
2022/10/28 07:19:33;;;;;;;2.87;1.70;;;14.30;80.20;14.70;97363.00;;;;5040854;28;20777;-86
2022/10/28 07:22:00;;;;;;;2.73;2.27;;;14.30;80.90;14.80;97358.00;;;;5041561;28;20220;-86
2022/10/28 07:24:28;;;;;;;3.13;1.80;;;14.40;80.40;14.80;97354.00;;;;5041558;28;20315;-87
2022/10/28 07:26:55;;;;;;;2.77;2.27;;;14.40;80.50;14.90;97361.00;;;;5036545;28;20212;-86
2022/10/28 07:29:22;;;;;;;3.07;2.23;;;14.50;80.60;14.90;97361.00;;;;5044201;28;20288;-87
2022/10/28 07:31:49;;;;;;;2.43;2.10;;;14.50;80.70;15.00;97369.00;;;;5033294;28;20284;-87
2022/10/28 07:34:17;;;;;;;2.07;1.83;;;14.50;80.90;15.10;97375.00;;;;5036487;28;20227;-87
2022/10/28 07:36:44;;;;;;;2.60;1.87;;;14.60;81.20;15.20;97369.00;;;;5044173;28;20236;-87
2022/10/28 07:39:11;;;;;;;2.83;2.17;;;14.70;81.50;15.30;97379.00;;;;5043374;28;20284;-87
2022/10/28 07:41:40;;;;;;;1.97;1.87;;;14.80;81.70;15.40;97376.00;;;;5039800;28;20220;-87
2022/10/28 07:44:07;;;;;;;2.27;2.07;;;14.90;82.80;15.50;97375.00;;;;5044411;28;20243;-86
2022/10/28 07:46:34;;;;;;;3.67;1.97;;;15.00;82.30;15.60;97378.00;;;;5038773;28;20231;-86
2022/10/28 07:49:01;;;;;;;2.27;1.70;;;15.00;82.60;15.70;97391.00;;;;5039918;28;20229;-86
2022/10/28 07:51:29;;;;;;;1.40;1.30;;;15.10;82.70;15.90;97391.00;;;;5043507;28;20709;-86
2022/10/28 07:53:57;;;;;;;1.57;1.47;;;15.30;82.70;16.00;97388.00;;;;5044185;28;20220;-86
2022/10/28 07:56:25;;;;;;;1.60;1.50;;;15.40;82.80;16.20;97379.00;;;;5042375;28;20205;-86
2022/10/28 07:58:53;;;;;;;2.50;1.43;;;15.50;83.10;16.30;97380.00;;;;5042926;28;20296;-86
2022/10/28 08:01:22;;;;;;;1.87;1.63;;;15.60;83.20;16.50;97382.00;;;;5041613;28;20246;-85
2022/10/28 08:03:49;;;;;;;4.47;1.67;;;15.80;83.40;16.60;97383.00;;;;5039620;28;20253;-86
2022/10/28 08:06:19;;;;;;;1.70;1.60;;;15.90;83.40;16.80;97393.00;;;;5062041;28;20228;-86
2022/10/28 08:08:48;;;;;;;2.57;1.60;;;16.10;83.40;16.90;97382.00;;;;5057828;28;20643;-86
2022/10/28 08:11:21;;;;;;;1.87;1.60;;;16.20;83.40;17.10;97388.00;;;;5034777;28;20745;-86
2022/10/28 08:13:48;;;;;;;1.37;1.27;;;16.30;83.40;17.20;97388.00;;;;5043164;28;20226;-86
2022/10/28 08:16:18;;;;;;;3.23;1.90;;;16.40;83.40;17.30;97386.00;;;;5039253;28;20299;-86
2022/10/28 08:18:45;;;;;;;2.60;1.57;;;16.60;83.30;17.50;97387.00;;;;5040168;28;20240;-86
2022/10/28 08:21:14;;;;;;;2.93;1.47;;;16.70;83.20;17.60;97378.00;;;;5040368;28;20248;-86
2022/10/28 08:23:45;;;;;;;3.73;1.57;;;16.80;82.80;17.70;97383.00;;;;5029593;28;20225;-86
2022/10/28 08:26:13;;;;;;;1.67;1.57;;;17.00;82.60;17.80;97380.00;;;;5036428;28;20221;-86
2022/10/28 08:28:41;;;;;;;2.97;1.60;;;17.10;82.50;17.90;97376.00;;;;5041014;28;20847;-86
2022/10/28 08:31:08;;;;;;;3.80;1.80;;;17.20;82.50;18.00;97380.00;;;;5042790;28;20225;-86
2022/10/28 08:33:39;;;;;;;2.43;1.57;;;17.30;82.50;18.10;97381.00;;;;5044175;28;20228;-86
2022/10/28 08:36:09;;;;;;;2.70;1.70;;;17.30;82.40;18.20;97372.00;;;;5042536;28;20236;-87
2022/10/28 08:38:36;;;;;;;5.30;1.60;;;17.50;82.40;18.30;97379.00;;;;5047084;28;20205;-86
2022/10/28 08:41:22;;;;;;;1.50;1.40;;;17.60;82.30;18.50;97377.00;;;;5043442;28;20259;-86
2022/10/28 08:44:29;;;;;;;2.20;1.77;;;17.70;82.90;18.60;97374.00;;;;5044199;28;20327;-85
2022/10/28 08:47:15;;;;;;;1.77;1.50;;;17.80;81.60;18.80;97377.00;;;;5038826;28;20307;-86
2022/10/28 08:49:47;;;;;;;2.23;1.60;;;18.00;81.70;19.00;97374.00;;;;5043422;28;20338;-86
2022/10/28 08:52:28;;;;;;;2.23;1.50;;;18.10;81.40;19.10;97379.00;;;;5040106;28;20208;-85
2022/10/28 08:55:02;;;;;;;2.07;1.50;;;18.30;80.50;19.20;97383.00;;;;5046300;28;20216;-86
2022/10/28 08:57:39;;;;;;;4.03;1.60;;;18.40;80.50;19.40;97380.00;;;;5039638;28;20284;-85
2022/10/28 09:00:09;;;;;;;1.60;1.50;;;18.50;79.50;19.50;97380.00;;;;5046167;28;20569;-86
2022/10/28 09:02:52;;;;;;;1.47;1.20;;;18.70;79.10;19.60;97371.00;;;;5046613;28;20268;-85
2022/10/28 09:05:23;;;;;;;2.03;1.33;;;18.80;78.60;19.70;97381.00;;;;5038927;28;20220;-85
2022/10/28 09:07:52;;;;;;;3.20;1.80;;;18.90;79.00;19.80;97381.00;;;;5044343;28;20193;-86
2022/10/28 09:10:49;;;;;;;1.83;1.40;;;19.00;79.20;19.90;97385.00;;;;5045417;28;20280;-86
2022/10/28 09:13:28;;;;;;;3.80;1.30;;;19.10;78.80;20.10;97387.00;;;;5036376;28;20884;-86
2022/10/28 09:16:07;;;;;;;1.47;1.20;;;19.30;79.10;20.20;97384.00;;;;5043916;28;20209;-85
2022/10/28 09:18:52;;;;;;;2.80;1.30;;;19.40;79.10;20.20;97392.00;;;;5040552;28;20200;-86
2022/10/28 09:21:32;;;;;;;3.17;1.30;;;19.50;78.70;20.30;97388.00;;;;5042346;28;20205;-86
2022/10/28 09:24:11;;;;;;;3.77;1.47;;;19.60;78.30;20.40;97384.00;;;;5040203;28;20225;-85
2022/10/28 09:26:50;;;;;;;1.30;1.20;;;19.70;78.70;20.60;97383.00;;;;5040079;28;20214;-85
2022/10/28 09:29:36;;;;;;;4.20;1.47;;;19.80;78.80;20.70;97384.00;;;;5039849;28;20296;-85
2022/10/28 09:32:20;;;;;;;2.40;1.47;;;19.90;79.10;20.90;97383.00;;;;5043883;28;20280;-86
2022/10/28 09:34:54;;;;;;;1.73;1.33;;;20.10;79.10;21.00;97382.00;;;;5036073;28;20246;-86
2022/10/28 09:37:29;;;;;;;3.93;1.30;;;20.20;79.10;21.10;97381.00;;;;5038675;28;20186;-86
2022/10/28 09:40:02;;;;;;;2.30;1.30;;;20.30;78.70;21.20;97381.00;;;;5043502;28;20283;-86
2022/10/28 09:42:34;;;;;;;1.60;1.50;;;20.40;78.50;21.20;97380.00;;;;5038696;28;20224;-86
2022/10/28 09:45:06;;;;;;;1.30;1.20;;;20.50;77.90;21.30;97381.00;;;;5037285;28;20765;-86
2022/10/28 09:47:40;;;;;;;1.33;1.10;;;20.60;77.70;21.30;97382.00;;;;5040338;28;20652;-86
2022/10/28 09:50:17;;;;;;;2.50;1.30;;;20.70;78.40;21.40;97379.00;;;;5043912;28;20234;-85
2022/10/28 09:52:59;;;;;;;1.40;1.30;;;20.80;78.20;21.40;97385.00;;;;5042079;28;20235;-86
2022/10/28 09:55:26;;;;;;;2.17;1.20;;;20.80;77.40;21.40;97379.00;;;;5042494;28;20290;-86
2022/10/28 09:57:53;;;;;;;2.70;1.33;;;20.90;77.50;21.40;97381.00;;;;5043925;28;20211;-86
2022/10/28 10:00:21;;;;;;;1.53;1.43;;;20.90;77.20;21.50;97373.00;;;;5043282;28;20200;-85
2022/10/28 10:02:52;;;;;;;3.30;1.37;;;21.00;77.30;21.50;97374.00;;;;5043446;28;20697;-85
2022/10/28 10:05:20;;;;;;;3.47;1.50;;;21.00;77.00;21.60;97379.00;;;;5039298;28;20299;-86
2022/10/28 10:07:53;;;;;;;2.60;1.53;;;21.10;77.30;21.70;97383.00;;;;5042403;28;20296;-85
2022/10/28 10:10:26;;;;;;;1.73;1.30;;;21.20;77.80;21.90;97380.00;;;;5043342;28;20290;-85
2022/10/28 10:12:58;;;;;;;1.87;1.70;;;21.30;77.90;22.10;97382.00;;;;5040620;28;20582;-86
2022/10/28 10:15:32;;;;;;;3.57;1.50;;;21.50;77.90;22.20;97378.00;;;;5044720;28;20215;-85
2022/10/28 10:18:03;;;;;;;3.00;1.50;;;21.60;78.10;22.40;97377.00;;;;5040655;28;20276;-86
2022/10/28 10:20:48;;;;;;;2.33;1.10;;;21.80;78.10;22.60;97376.00;;;;5041101;28;20216;-86
2022/10/28 10:23:31;;;;;;;2.47;1.30;;;22.00;76.90;22.70;97383.00;;;;5034919;28;20316;-86
2022/10/28 10:26:02;;;;;;;3.93;1.23;;;22.10;75.80;22.90;97382.00;;;;5051892;28;20710;-87
2022/10/28 10:28:30;;;;;;;1.43;1.10;;;22.30;76.40;23.00;97389.00;;;;5033527;28;20182;-86
2022/10/28 10:31:01;;;;;;;2.57;1.20;;;22.40;76.00;23.10;97383.00;;;;5035694;28;20197;-86
2022/10/28 10:33:33;;;;;;;1.37;1.03;;;22.50;74.30;23.20;97377.00;;;;5034276;28;20224;-87
2022/10/28 10:36:11;;;;;;;2.03;1.07;;;22.60;73.90;23.20;97384.00;;;;5053203;28;20204;-86
2022/10/28 10:38:49;;;;;;;1.50;1.13;;;22.70;72.70;23.30;97388.00;;;;5050669;28;20201;-87
2022/10/28 10:41:34;;;;;;;1.20;0.83;;;22.70;72.00;23.30;97382.00;;;;5033917;28;20595;-87
2022/10/28 10:44:01;;;;;;;1.80;1.10;;;22.80;72.40;23.30;97385.00;;;;5033149;28;20225;-86
2022/10/28 10:46:28;;;;;;;2.83;1.23;;;22.80;73.10;23.30;97381.00;;;;5033659;28;21138;-88
2022/10/28 10:49:13;;;;;;;0.93;0.80;;;22.80;72.80;23.30;97379.00;;;;5049452;28;20689;-88
2022/10/28 10:51:50;;;;;;;1.43;1.30;;;22.90;72.30;23.30;97379.00;;;;5031119;28;20205;-87
2022/10/28 10:54:21;;;;;;;1.93;1.03;;;22.80;72.60;23.30;97378.00;;;;5034607;28;20312;-87
2022/10/28 10:56:49;;;;;;;3.13;1.20;;;22.80;72.60;23.30;97365.00;;;;5038130;28;20627;-87
2022/10/28 10:59:25;;;;;;;1.50;0.90;;;22.80;72.60;23.30;97361.00;;;;5030349;28;20283;-87
2022/10/28 11:01:54;;;;;;;1.13;1.03;;;22.80;72.10;23.30;97356.00;;;;5013777;28;20269;-87
2022/10/28 11:04:24;;;;;;;2.73;1.50;;;22.80;72.40;23.30;97359.00;;;;5068177;22;20324;-81
2022/10/28 11:06:55;;;;;;;1.40;1.03;;;22.80;72.00;23.30;97354.00;;;;5031870;28;20631;-82
2022/10/28 11:09:41;;;;;;;1.20;0.73;;;22.80;71.80;23.30;97349.00;;;;5015156;28;20202;-82
2022/10/28 11:12:30;;;;;;;1.03;0.80;;;22.80;71.00;23.30;97348.00;;;;5031721;28;20193;-82
2022/10/28 11:15:05;;;;;;;1.10;0.93;;;22.80;70.20;23.30;97353.00;;;;5005552;28;20206;-82